createdAt,value
2022-11-30T00:01:21.127Z,60.70
2022-11-30T00:03:49.611Z,53.97
2022-11-30T00:06:22.862Z,71.83
2022-11-30T00:08:51.024Z,55.13
2022-11-30T00:11:21.389Z,74.40
2022-11-30T00:13:49.650Z,65.40
2022-11-30T00:16:17.844Z,57.50
2022-11-30T00:18:45.809Z,52.87
2022-11-30T00:21:15.176Z,56.93
2022-11-30T00:23:44.646Z,70.00
2022-11-30T00:26:14.822Z,55.63
2022-11-30T00:28:45.677Z,76.40
2022-11-30T00:31:15.665Z,71.53
2022-11-30T00:33:44.252Z,58.43
2022-11-30T00:36:14.414Z,72.70
2022-11-30T00:38:42.426Z,65.83
2022-11-30T00:41:10.923Z,55.57
2022-11-30T00:43:38.829Z,56.47
2022-11-30T00:46:09.712Z,49.30
2022-11-30T00:48:38.041Z,54.13
2022-11-30T00:51:06.450Z,64.67
2022-11-30T00:53:34.414Z,87.50
2022-11-30T00:56:02.316Z,56.37
2022-11-30T00:58:30.321Z,82.80
2022-11-30T01:00:58.155Z,107.33
2022-11-30T01:03:27.557Z,70.97
2022-11-30T01:05:55.430Z,85.30
2022-11-30T01:08:25.450Z,87.47
2022-11-30T01:10:57.657Z,90.17
2022-11-30T01:13:25.533Z,101.30
2022-11-30T01:15:53.451Z,59.17
2022-11-30T01:18:21.419Z,113.53
2022-11-30T01:20:50.617Z,53.17
2022-11-30T01:23:18.430Z,110.00
2022-11-30T01:25:55.209Z,94.90
2022-11-30T01:28:23.101Z,58.17
2022-11-30T01:30:58.034Z,100.73
2022-11-30T01:33:26.244Z,110.90
2022-11-30T01:36:03.256Z,82.57
2022-11-30T01:38:36.453Z,58.37
2022-11-30T01:41:05.264Z,68.60
2022-11-30T01:43:42.412Z,54.57
2022-11-30T01:46:32.977Z,69.53
2022-11-30T01:49:13.407Z,66.73
2022-11-30T01:51:46.465Z,62.77
2022-11-30T01:54:17.431Z,53.83
2022-11-30T01:56:48.364Z,81.30
2022-11-30T01:59:17.621Z,67.63
2022-11-30T02:01:46.717Z,71.80
2022-11-30T02:04:20.115Z,53.37
2022-11-30T02:06:50.203Z,100.63
2022-11-30T02:09:20.229Z,69.97
2022-11-30T02:11:48.606Z,53.03
2022-11-30T02:14:28.662Z,84.93
2022-11-30T02:17:07.326Z,63.80
2022-11-30T02:20:11.609Z,66.00
2022-11-30T02:22:58.250Z,86.90
2022-11-30T02:25:37.370Z,54.53
2022-11-30T02:28:22.845Z,60.60
2022-11-30T02:30:54.951Z,78.70
2022-11-30T02:33:26.190Z,88.67
2022-11-30T02:35:56.306Z,64.97
2022-11-30T02:38:27.481Z,49.73
2022-11-30T02:40:55.351Z,85.37
2022-11-30T02:43:26.559Z,61.30
2022-11-30T02:46:03.390Z,82.00
2022-11-30T02:48:37.222Z,52.43
2022-11-30T02:51:07.049Z,82.37
2022-11-30T02:53:35.223Z,71.63
2022-11-30T02:56:03.248Z,59.80
2022-11-30T02:58:31.443Z,67.77
2022-11-30T03:01:00.698Z,68.43
2022-11-30T03:03:28.598Z,77.03
2022-11-30T03:05:56.445Z,78.47
2022-11-30T03:08:24.336Z,64.93
2022-11-30T03:10:52.226Z,57.40
2022-11-30T03:13:20.120Z,51.77
2022-11-30T03:15:48.080Z,53.73
2022-11-30T03:18:17.366Z,55.97
2022-11-30T03:20:45.276Z,44.23
2022-11-30T03:23:13.117Z,57.27
2022-11-30T03:25:41.095Z,51.87
2022-11-30T03:28:08.969Z,51.13
2022-11-30T03:30:36.775Z,68.27
2022-11-30T03:33:04.665Z,79.77
2022-11-30T03:35:33.838Z,69.73
2022-11-30T03:38:01.657Z,59.90
2022-11-30T03:40:29.484Z,47.93
2022-11-30T03:42:57.350Z,52.47
2022-11-30T03:45:25.200Z,55.77
2022-11-30T03:47:53.035Z,46.77
2022-11-30T03:50:20.904Z,55.87
2022-11-30T03:52:50.318Z,49.37
2022-11-30T03:55:18.394Z,38.93
2022-11-30T03:57:46.273Z,44.27
2022-11-30T04:00:15.042Z,50.93
2022-11-30T04:02:44.866Z,66.23
2022-11-30T04:05:13.424Z,56.53
2022-11-30T04:07:41.289Z,95.73
2022-11-30T04:10:12.068Z,74.10
2022-11-30T04:12:39.889Z,52.90
2022-11-30T04:15:08.957Z,64.63
2022-11-30T04:17:36.854Z,38.03
2022-11-30T04:20:05.481Z,59.93
2022-11-30T04:22:33.753Z,72.83
2022-11-30T04:25:01.577Z,77.47
2022-11-30T04:27:30.876Z,46.70
2022-11-30T04:29:58.908Z,58.60
2022-11-30T04:32:26.822Z,51.27
2022-11-30T04:34:54.674Z,62.97
2022-11-30T04:37:22.524Z,56.37
2022-11-30T04:39:50.366Z,54.80
2022-11-30T04:42:18.291Z,54.87
2022-11-30T04:44:47.738Z,49.20
2022-11-30T04:47:15.933Z,50.60
2022-11-30T04:49:43.781Z,81.18
2022-11-30T04:52:11.625Z,57.03
2022-11-30T04:54:39.417Z,61.37
2022-11-30T04:57:07.380Z,86.90
2022-11-30T04:59:35.268Z,96.05
2022-11-30T05:02:04.593Z,60.33
2022-11-30T05:04:32.615Z,98.83
2022-11-30T05:07:00.561Z,72.53
2022-11-30T05:09:28.484Z,79.57
2022-11-30T05:11:56.329Z,70.20
2022-11-30T05:14:24.202Z,77.23
2022-11-30T05:16:52.083Z,63.07
2022-11-30T05:19:21.258Z,55.90
2022-11-30T05:21:49.124Z,67.30
2022-11-30T05:24:17.194Z,54.77
2022-11-30T05:26:45.116Z,107.60
2022-11-30T05:29:13.007Z,43.10
2022-11-30T05:31:41.011Z,69.20
2022-11-30T05:34:08.944Z,67.33
2022-11-30T05:36:38.189Z,63.87
2022-11-30T05:39:06.142Z,48.30
2022-11-30T05:41:33.995Z,87.03
2022-11-30T05:44:01.913Z,109.73
2022-11-30T05:46:29.964Z,59.33
2022-11-30T05:48:57.889Z,88.17
2022-11-30T05:51:25.782Z,72.67
2022-11-30T05:53:55.021Z,84.57
2022-11-30T05:56:23.116Z,47.13
2022-11-30T05:58:50.992Z,57.57
2022-11-30T06:01:20.178Z,40.80
2022-11-30T06:03:48.117Z,113.07
2022-11-30T06:06:15.959Z,74.47
2022-11-30T06:08:44.866Z,70.27
2022-11-30T06:11:14.286Z,75.87
2022-11-30T06:13:42.282Z,57.33
2022-11-30T06:16:10.433Z,52.00
2022-11-30T06:18:38.994Z,79.43
2022-11-30T06:21:09.071Z,72.00
2022-11-30T06:23:37.910Z,40.47
2022-11-30T06:26:06.816Z,123.20
2022-11-30T06:28:36.854Z,80.80
2022-11-30T06:31:06.799Z,38.17
2022-11-30T06:33:35.311Z,54.00
2022-11-30T06:36:03.582Z,55.20
2022-11-30T06:38:31.812Z,81.67
2022-11-30T06:41:05.562Z,154.07
2022-11-30T06:43:38.775Z,126.97
2022-11-30T06:46:07.937Z,45.67
2022-11-30T06:48:36.460Z,121.43
2022-11-30T06:51:06.639Z,42.83
2022-11-30T06:53:34.489Z,65.27
2022-11-30T06:56:09.873Z,55.87
2022-11-30T06:58:39.954Z,108.63
2022-11-30T07:01:08.636Z,91.17
2022-11-30T07:03:36.909Z,74.30
2022-11-30T07:06:09.127Z,104.77
2022-11-30T07:08:37.294Z,80.67
2022-11-30T07:11:05.439Z,199.00
2022-11-30T07:13:33.347Z,115.27
2022-11-30T07:16:04.441Z,118.63
2022-11-30T07:18:32.819Z,194.40
2022-11-30T07:21:00.956Z,109.70
2022-11-30T07:23:50.802Z,134.17
2022-11-30T07:26:22.603Z,115.03
2022-11-30T07:28:55.348Z,98.63
2022-11-30T07:31:26.290Z,86.80
2022-11-30T07:33:54.447Z,76.67
2022-11-30T07:36:23.590Z,155.40
2022-11-30T07:38:51.658Z,76.00
2022-11-30T07:41:19.642Z,84.27
2022-11-30T07:43:47.600Z,57.57
2022-11-30T07:46:16.798Z,86.20
2022-11-30T07:48:47.265Z,49.03
2022-11-30T07:51:17.056Z,34.23
2022-11-30T07:53:45.347Z,30.73
2022-11-30T07:56:15.233Z,63.83
2022-11-30T07:58:43.670Z,37.10
2022-11-30T08:01:13.872Z,48.10
2022-11-30T08:03:42.039Z,56.53
2022-11-30T08:06:13.070Z,27.27
2022-11-30T08:08:42.597Z,38.00
2022-11-30T08:11:13.293Z,35.57
2022-11-30T08:13:41.459Z,37.80
2022-11-30T08:16:11.476Z,43.40
2022-11-30T08:18:39.565Z,28.03
2022-11-30T08:21:09.921Z,31.47
2022-11-30T08:23:40.851Z,40.20
2022-11-30T08:26:12.576Z,28.53
2022-11-30T08:28:40.777Z,35.60
2022-11-30T08:31:10.522Z,43.70
2022-11-30T08:33:39.601Z,44.50
2022-11-30T08:36:09.024Z,32.57
2022-11-30T08:38:40.135Z,32.23
2022-11-30T08:41:09.553Z,24.73
2022-11-30T08:43:37.671Z,32.40
2022-11-30T08:46:27.549Z,35.00
2022-11-30T08:49:13.114Z,27.83
2022-11-30T08:52:15.315Z,25.03
2022-11-30T08:54:32.703Z,26.50
2022-11-30T08:57:00.590Z,25.30
2022-11-30T08:59:28.455Z,29.53
2022-11-30T09:01:56.391Z,34.20
2022-11-30T09:04:24.371Z,37.03
2022-11-30T09:06:52.218Z,32.63
2022-11-30T09:09:20.163Z,29.37
2022-11-30T09:11:49.315Z,23.57
2022-11-30T09:14:17.195Z,23.67
2022-11-30T09:16:45.013Z,25.80
2022-11-30T09:19:12.917Z,26.70
2022-11-30T09:21:40.890Z,38.13
2022-11-30T09:24:09.012Z,32.03
2022-11-30T09:26:37.026Z,26.13
2022-11-30T09:29:06.412Z,31.20
2022-11-30T09:31:34.283Z,32.63
2022-11-30T09:34:02.521Z,30.20
2022-11-30T09:36:30.894Z,26.07
2022-11-30T09:38:58.809Z,23.20
2022-11-30T09:42:02.499Z,38.93
2022-11-30T09:44:40.030Z,29.00
2022-11-30T09:47:27.240Z,30.93
2022-11-30T09:49:57.760Z,34.80
2022-11-30T09:52:33.488Z,34.57
2022-11-30T09:55:06.478Z,36.33
2022-11-30T09:57:42.805Z,28.77
2022-11-30T10:00:15.845Z,30.20
2022-11-30T10:02:44.741Z,29.20
2022-11-30T10:05:14.849Z,28.50
2022-11-30T10:08:05.240Z,34.60
2022-11-30T10:10:40.154Z,30.50
2022-11-30T10:13:23.289Z,28.40
2022-11-30T10:16:05.446Z,28.83
2022-11-30T10:18:42.517Z,29.33
2022-11-30T10:21:23.785Z,30.90
2022-11-30T10:24:12.318Z,30.63
2022-11-30T10:26:45.394Z,28.73
2022-11-30T10:29:19.516Z,27.73
2022-11-30T10:31:52.510Z,27.23
2022-11-30T10:34:22.810Z,26.90
2022-11-30T10:36:56.929Z,27.97
2022-11-30T10:39:32.582Z,25.77
2022-11-30T10:42:06.264Z,26.47
2022-11-30T10:44:39.937Z,25.40
2022-11-30T10:47:15.650Z,25.87
2022-11-30T10:49:49.070Z,27.37
2022-11-30T10:52:21.292Z,27.23
2022-11-30T10:54:50.733Z,26.90
2022-11-30T10:57:18.661Z,27.63
2022-11-30T10:59:50.181Z,26.20
2022-11-30T11:02:39.623Z,27.40
2022-11-30T11:05:10.658Z,24.50
2022-11-30T11:07:49.134Z,26.90
2022-11-30T11:10:19.300Z,24.20
2022-11-30T11:12:49.869Z,29.23
2022-11-30T11:15:23.598Z,25.13
2022-11-30T11:17:53.949Z,26.23
2022-11-30T11:20:35.427Z,26.57
2022-11-30T11:23:04.730Z,24.53
2022-11-30T11:25:37.353Z,25.07
2022-11-30T11:28:09.072Z,28.67
2022-11-30T11:30:38.492Z,27.97
2022-11-30T11:33:22.350Z,25.70
2022-11-30T11:35:52.301Z,23.93
2022-11-30T11:38:26.087Z,25.90
2022-11-30T11:41:00.503Z,28.03
2022-11-30T11:43:30.599Z,23.43
2022-11-30T11:46:01.546Z,27.43
2022-11-30T11:48:35.988Z,26.70
2022-11-30T11:51:07.786Z,24.33
2022-11-30T11:53:51.584Z,25.30
2022-11-30T11:56:26.567Z,22.07
2022-11-30T11:58:59.211Z,20.27
2022-11-30T12:01:43.146Z,20.53
2022-11-30T12:04:43.726Z,17.63
2022-11-30T12:07:33.229Z,17.57
2022-11-30T12:10:43.223Z,16.40
2022-11-30T12:13:00.578Z,16.23
2022-11-30T12:15:34.868Z,17.93
2022-11-30T12:18:15.970Z,19.73
2022-11-30T12:20:56.653Z,16.97
2022-11-30T12:23:41.425Z,17.83
2022-11-30T12:26:16.575Z,19.53
2022-11-30T12:28:59.794Z,18.87
2022-11-30T12:31:36.376Z,20.03
2022-11-30T12:34:11.981Z,20.77
2022-11-30T12:36:55.115Z,22.37
2022-11-30T12:39:34.202Z,22.33
2022-11-30T12:42:13.447Z,21.53
2022-11-30T12:44:49.757Z,24.87
2022-11-30T12:47:34.782Z,23.03
2022-11-30T12:50:17.434Z,23.53
2022-11-30T12:52:56.223Z,23.23
2022-11-30T12:55:32.714Z,25.80
2022-11-30T12:58:08.960Z,24.53
2022-11-30T13:00:49.013Z,24.43
2022-11-30T13:03:36.245Z,24.57
2022-11-30T13:06:10.478Z,23.03
2022-11-30T13:08:47.345Z,20.63
2022-11-30T13:11:20.157Z,24.47
2022-11-30T13:13:51.916Z,23.40
2022-11-30T13:16:21.408Z,25.73
2022-11-30T13:18:51.326Z,21.60
2022-11-30T13:21:27.316Z,22.63
2022-11-30T13:24:05.621Z,24.00
2022-11-30T13:26:39.937Z,23.70
2022-11-30T13:29:55.153Z,22.33
2022-11-30T13:32:56.149Z,21.13
2022-11-30T13:35:43.573Z,21.10
2022-11-30T13:38:36.938Z,21.23
2022-11-30T13:41:09.331Z,21.27
2022-11-30T13:43:42.669Z,19.57
2022-11-30T13:46:19.890Z,19.73
2022-11-30T13:48:48.294Z,18.93
2022-11-30T13:51:35.694Z,19.40
2022-11-30T13:54:36.746Z,20.90
2022-11-30T13:57:17.358Z,20.87
2022-11-30T13:59:51.390Z,20.00
2022-11-30T14:02:59.164Z,19.73
2022-11-30T14:05:38.168Z,17.93
2022-11-30T14:08:35.749Z,18.63
2022-11-30T14:11:39.676Z,17.77
2022-11-30T14:14:47.198Z,19.97
2022-11-30T14:17:27.146Z,18.37
2022-11-30T14:19:59.756Z,20.03
2022-11-30T14:22:29.792Z,20.97
2022-11-30T14:24:58.164Z,19.20
2022-11-30T14:27:29.619Z,19.40
2022-11-30T14:30:04.231Z,18.63
2022-11-30T14:32:39.996Z,19.30
2022-11-30T14:35:13.819Z,20.30
2022-11-30T14:37:45.510Z,18.50
2022-11-30T14:40:19.822Z,17.93
2022-11-30T14:42:50.099Z,17.93
2022-11-30T14:45:25.236Z,22.00
2022-11-30T14:47:54.808Z,20.13
2022-11-30T14:50:25.268Z,19.37
2022-11-30T14:53:03.756Z,18.90
2022-11-30T14:55:37.080Z,19.63
2022-11-30T14:58:17.680Z,16.93
2022-11-30T15:00:47.996Z,17.97
2022-11-30T15:03:24.408Z,17.93
2022-11-30T15:05:54.594Z,19.37
2022-11-30T15:08:22.921Z,18.43
2022-11-30T15:10:51.569Z,19.90
2022-11-30T15:13:21.305Z,21.97
2022-11-30T15:15:55.697Z,21.20
2022-11-30T15:18:25.473Z,21.60
2022-11-30T15:20:57.820Z,19.57
2022-11-30T15:23:25.796Z,21.23
2022-11-30T15:25:57.414Z,22.67
2022-11-30T15:28:31.634Z,19.77
2022-11-30T15:31:05.801Z,20.50
2022-11-30T15:33:38.464Z,18.93
2022-11-30T15:38:54.813Z,22.40
2022-11-30T15:41:25.240Z,21.07
2022-11-30T15:43:55.199Z,20.83
2022-11-30T15:46:34.170Z,19.97
2022-11-30T15:49:16.398Z,23.30
2022-11-30T15:51:46.368Z,20.60
2022-11-30T15:54:15.289Z,19.30
2022-11-30T15:56:55.462Z,19.17
2022-11-30T15:59:25.164Z,21.53
2022-11-30T16:02:04.588Z,20.70
2022-11-30T16:05:13.609Z,20.87
2022-11-30T16:07:50.683Z,18.13
2022-11-30T16:10:21.704Z,18.77
2022-11-30T16:12:51.074Z,19.10
2022-11-30T16:15:21.645Z,16.93
2022-11-30T16:17:51.301Z,17.57
2022-11-30T16:20:20.801Z,15.80
2022-11-30T16:22:49.807Z,14.90
2022-11-30T16:25:20.214Z,14.50
2022-11-30T16:27:48.606Z,9.43
2022-11-30T16:30:18.508Z,9.90
2022-11-30T16:32:46.558Z,11.60
2022-11-30T16:35:25.022Z,11.00
2022-11-30T16:37:53.257Z,8.53
2022-11-30T16:40:21.419Z,9.00
2022-11-30T16:42:50.577Z,7.90
2022-11-30T16:45:21.422Z,8.77
2022-11-30T16:47:49.508Z,8.57
2022-11-30T16:50:18.189Z,8.70
2022-11-30T16:52:47.563Z,9.93
2022-11-30T16:55:16.523Z,9.57
2022-11-30T16:57:44.649Z,10.00
2022-11-30T17:00:15.578Z,10.03
2022-11-30T17:02:56.467Z,10.67
2022-11-30T17:05:25.011Z,12.43
2022-11-30T17:07:54.965Z,10.87
2022-11-30T17:10:23.209Z,10.37
2022-11-30T17:12:51.041Z,9.53
2022-11-30T17:15:21.864Z,10.20
2022-11-30T17:17:49.977Z,9.67
2022-11-30T17:20:18.740Z,8.63
2022-11-30T17:22:46.694Z,9.43
2022-11-30T17:25:18.318Z,10.10
2022-11-30T17:27:46.628Z,9.90
2022-11-30T17:30:16.754Z,8.83
2022-11-30T17:32:44.654Z,9.57
2022-11-30T17:35:12.802Z,10.67
2022-11-30T17:37:40.665Z,9.83
2022-11-30T17:40:11.356Z,10.57
2022-11-30T17:42:40.546Z,9.50
2022-11-30T17:45:09.667Z,9.97
2022-11-30T17:47:37.525Z,12.07
2022-11-30T17:50:06.643Z,11.33
2022-11-30T17:52:34.509Z,11.30
2022-11-30T17:55:02.575Z,15.33
2022-11-30T17:57:30.445Z,13.13
2022-11-30T17:59:59.675Z,13.97
2022-11-30T18:02:27.642Z,15.80
2022-11-30T18:04:55.761Z,16.50
2022-11-30T18:07:23.649Z,15.93
2022-11-30T18:09:51.557Z,15.50
2022-11-30T18:12:19.481Z,16.50
2022-11-30T18:14:47.647Z,15.67
2022-11-30T18:17:16.975Z,17.37
2022-11-30T18:19:44.837Z,15.53
2022-11-30T18:22:12.728Z,17.80
2022-11-30T18:24:40.617Z,17.50
2022-11-30T18:27:08.541Z,16.60
2022-11-30T18:29:36.449Z,19.23
2022-11-30T18:32:04.424Z,19.87
2022-11-30T18:34:33.587Z,30.20
2022-11-30T18:37:01.569Z,23.70
2022-11-30T18:39:29.463Z,25.30
2022-11-30T18:41:57.342Z,20.13
2022-11-30T18:44:25.214Z,22.03
2022-11-30T18:46:53.045Z,22.40
2022-11-30T18:49:22.565Z,22.10
2022-11-30T18:51:51.919Z,23.23
2022-11-30T18:54:19.902Z,20.60
2022-11-30T18:56:47.706Z,19.67
2022-11-30T18:59:16.244Z,23.23
2022-11-30T19:01:44.620Z,21.67
2022-11-30T19:04:12.910Z,23.03
2022-11-30T19:06:43.829Z,22.87
2022-11-30T19:09:14.902Z,24.93
2022-11-30T19:11:43.718Z,23.40
2022-11-30T19:14:13.879Z,25.93
2022-11-30T19:16:42.085Z,21.97
2022-11-30T19:19:13.757Z,22.67
2022-11-30T19:21:43.917Z,24.33
2022-11-30T19:24:13.269Z,21.67
2022-11-30T19:26:41.141Z,25.03
2022-11-30T19:29:11.293Z,20.90
2022-11-30T19:31:39.192Z,23.47
2022-11-30T19:34:12.503Z,24.67
2022-11-30T19:36:41.583Z,24.77
2022-11-30T19:39:11.500Z,23.43
2022-11-30T19:41:40.742Z,24.30
2022-11-30T19:44:12.114Z,24.97
2022-11-30T19:46:41.385Z,24.47
2022-11-30T19:49:10.909Z,26.43
2022-11-30T19:51:38.812Z,25.10
2022-11-30T19:54:06.730Z,24.60
2022-11-30T19:56:35.753Z,25.57
2022-11-30T19:59:06.084Z,23.77
2022-11-30T20:01:34.775Z,23.60
2022-11-30T20:04:03.304Z,23.83
2022-11-30T20:06:33.445Z,21.47
2022-11-30T20:09:01.802Z,23.17
2022-11-30T20:11:29.642Z,23.60
2022-11-30T20:13:58.336Z,20.70
2022-11-30T20:16:28.208Z,23.67
2022-11-30T20:18:57.651Z,25.50
2022-11-30T20:21:27.700Z,23.90
2022-11-30T20:23:58.108Z,25.20
2022-11-30T20:26:29.733Z,26.57
2022-11-30T20:28:58.525Z,25.00
2022-11-30T20:31:29.286Z,27.73
2022-11-30T20:33:57.174Z,27.07
2022-11-30T20:36:25.215Z,25.17
2022-11-30T20:38:53.241Z,23.77
2022-11-30T20:41:23.002Z,22.60
2022-11-30T20:43:52.226Z,25.37
2022-11-30T20:46:22.976Z,24.73
2022-11-30T20:48:52.942Z,22.63
2022-11-30T20:51:30.810Z,24.53
2022-11-30T20:54:00.637Z,24.83
2022-11-30T20:56:28.511Z,23.03
2022-11-30T20:58:56.361Z,23.53
2022-11-30T21:01:24.792Z,21.80
2022-11-30T21:03:54.118Z,24.23
2022-11-30T21:06:21.974Z,22.43
2022-11-30T21:08:49.858Z,23.87
2022-11-30T21:11:19.969Z,22.30
2022-11-30T21:13:49.846Z,22.07
2022-11-30T21:16:25.586Z,22.37
2022-11-30T21:18:58.001Z,24.33
2022-11-30T21:21:28.612Z,22.87
2022-11-30T21:23:58.767Z,22.40
2022-11-30T21:26:28.217Z,22.77
2022-11-30T21:29:01.010Z,22.47
2022-11-30T21:31:29.195Z,23.30
2022-11-30T21:33:58.590Z,22.47
2022-11-30T21:36:26.568Z,22.60
2022-11-30T21:39:01.058Z,23.57
2022-11-30T21:41:32.936Z,22.60
2022-11-30T21:44:00.783Z,25.33
2022-11-30T21:46:28.756Z,22.87
2022-11-30T21:48:58.028Z,27.10
2022-11-30T21:51:28.203Z,23.73
2022-11-30T21:53:58.057Z,25.27
2022-11-30T21:56:27.455Z,25.50
2022-11-30T21:58:55.773Z,24.33
2022-11-30T22:01:26.834Z,25.53
2022-11-30T22:03:55.926Z,25.47
2022-11-30T22:06:26.484Z,25.80
2022-11-30T22:08:56.706Z,25.70
2022-11-30T22:11:25.070Z,24.43
2022-11-30T22:13:54.128Z,24.80
2022-11-30T22:16:24.003Z,26.33
2022-11-30T22:18:53.803Z,28.57
2022-11-30T22:21:23.511Z,26.50
2022-11-30T22:23:56.151Z,26.57
2022-11-30T22:26:25.231Z,27.33
2022-11-30T22:28:54.755Z,31.53
2022-11-30T22:31:25.051Z,29.90
2022-11-30T22:33:53.026Z,26.43
2022-11-30T22:36:22.537Z,26.67
2022-11-30T22:38:56.639Z,26.53
2022-11-30T22:41:25.358Z,28.37
2022-11-30T22:43:53.563Z,28.83
2022-11-30T22:46:23.139Z,25.90
2022-11-30T22:48:51.389Z,28.13
2022-11-30T22:51:21.224Z,28.40
2022-11-30T22:53:49.538Z,26.03
2022-11-30T22:56:20.942Z,27.33
2022-11-30T22:58:49.977Z,27.23
2022-11-30T23:01:20.255Z,26.77
2022-11-30T23:03:50.067Z,26.63
2022-11-30T23:06:20.201Z,26.00
2022-11-30T23:08:49.104Z,26.20
2022-11-30T23:11:20.691Z,29.97
2022-11-30T23:13:49.220Z,27.27
2022-11-30T23:16:17.812Z,29.90
2022-11-30T23:18:48.248Z,31.33
2022-11-30T23:21:18.080Z,27.77
2022-11-30T23:23:47.049Z,32.07
2022-11-30T23:26:16.610Z,31.00
2022-11-30T23:28:47.361Z,34.13
2022-11-30T23:31:34.004Z,28.60
2022-11-30T23:34:05.711Z,31.50
2022-11-30T23:36:33.926Z,33.67
2022-11-30T23:39:03.563Z,32.07
2022-11-30T23:41:31.864Z,30.47
2022-11-30T23:44:01.713Z,34.97
2022-11-30T23:46:30.025Z,33.53
2022-11-30T23:48:58.297Z,31.03
2022-11-30T23:51:27.035Z,33.67
2022-11-30T23:53:55.027Z,30.83
2022-11-30T23:56:24.183Z,30.13
2022-11-30T23:58:52.426Z,32.67
